sensor_id;sensor_type;location;lat;lon;timestamp;pressure;altitude;pressure_sealevel;temperature;humidity
60089;BME280;45961;53.574;55.878;2024-01-06T09:42:55;99657.22;;;-10.34;77.58
60089;BME280;45961;53.574;55.878;2024-01-06T09:43:56;99665.09;;;-10.29;77.68
60089;BME280;45961;53.574;55.878;2024-01-06T09:44:57;99670.59;;;-10.33;77.55
60089;BME280;45961;53.574;55.878;2024-01-06T09:45:58;99671.09;;;-10.27;77.68
60089;BME280;45961;53.574;55.878;2024-01-06T09:47:02;99672.84;;;-10.26;77.71
60089;BME280;45961;53.574;55.878;2024-01-06T09:48:10;99669.94;;;-10.21;77.61
60089;BME280;45961;53.574;55.878;2024-01-06T09:49:11;99666.22;;;-10.26;77.38
60089;BME280;45961;53.574;55.878;2024-01-06T09:50:14;99668.06;;;-10.23;77.25
60089;BME280;45961;53.574;55.878;2024-01-06T09:51:14;99668.31;;;-10.20;77.12
60089;BME280;45961;53.574;55.878;2024-01-06T09:52:17;99667.84;;;-10.26;77.38
60089;BME280;45961;53.574;55.878;2024-01-06T09:53:20;99667.44;;;-10.21;77.45
60089;BME280;45961;53.574;55.878;2024-01-06T09:54:22;99669.72;;;-10.34;77.36
60089;BME280;45961;53.574;55.878;2024-01-06T09:55:25;99670.09;;;-10.29;77.74
60089;BME280;45961;53.574;55.878;2024-01-06T09:56:29;99669.19;;;-10.20;77.88
60089;BME280;45961;53.574;55.878;2024-01-06T09:57:30;99669.66;;;-10.13;78.00
60089;BME280;45961;53.574;55.878;2024-01-06T09:58:31;99674.81;;;-10.12;77.88
60089;BME280;45961;53.574;55.878;2024-01-06T09:59:34;99671.81;;;-10.18;77.77
60089;BME280;45961;53.574;55.878;2024-01-06T10:00:37;99674.81;;;-10.12;77.58
60089;BME280;45961;53.574;55.878;2024-01-06T10:01:38;99675.81;;;-10.10;77.72
60089;BME280;45961;53.574;55.878;2024-01-06T10:02:39;99673.19;;;-10.11;77.65
60089;BME280;45961;53.574;55.878;2024-01-06T10:03:41;99673.69;;;-10.15;77.58
60089;BME280;45961;53.574;55.878;2024-01-06T10:04:42;99669.34;;;-10.28;77.45
60089;BME280;45961;53.574;55.878;2024-01-06T10:05:42;99674.38;;;-10.28;77.59
60089;BME280;45961;53.574;55.878;2024-01-06T10:06:43;99671.00;;;-10.29;77.80
60089;BME280;45961;53.574;55.878;2024-01-06T10:07:45;99674.38;;;-10.28;77.86
60089;BME280;45961;53.574;55.878;2024-01-06T10:08:49;99669.59;;;-10.25;77.95
60089;BME280;45961;53.574;55.878;2024-01-06T10:09:51;99670.34;;;-10.26;78.17
60089;BME280;45961;53.574;55.878;2024-01-06T10:10:54;99666.31;;;-10.24;78.05
60089;BME280;45961;53.574;55.878;2024-01-06T10:11:55;99670.06;;;-10.19;78.29
60089;BME280;45961;53.574;55.878;2024-01-06T10:12:57;99669.47;;;-10.27;78.25
60089;BME280;45961;53.574;55.878;2024-01-06T10:13:58;99665.09;;;-10.29;78.08
60089;BME280;45961;53.574;55.878;2024-01-06T10:14:58;99669.94;;;-10.21;78.15
60089;BME280;45961;53.574;55.878;2024-01-06T10:15:59;99664.31;;;-10.18;78.37
60089;BME280;45961;53.574;55.878;2024-01-06T10:17:01;99669.44;;;-10.16;78.38
60089;BME280;45961;53.574;55.878;2024-01-06T10:18:01;99662.81;;;-10.16;78.25
60089;BME280;45961;53.574;55.878;2024-01-06T10:19:03;99661.84;;;-10.28;78.18
60089;BME280;45961;53.574;55.878;2024-01-06T10:21:09;99670.56;;;-10.23;78.35
60089;BME280;45961;53.574;55.878;2024-01-06T10:22:10;99674.22;;;-10.40;78.20
60089;BME280;45961;53.574;55.878;2024-01-06T10:23:11;99681.69;;;-10.71;78.26
60089;BME280;45961;53.574;55.878;2024-01-06T10:24:11;99684.84;;;-10.63;78.67
60089;BME280;45961;53.574;55.878;2024-01-06T10:25:12;99677.44;;;-10.72;78.93
60089;BME280;45961;53.574;55.878;2024-01-06T10:26:14;99673.09;;;-10.64;79.28
60089;BME280;45961;53.574;55.878;2024-01-06T10:27:15;99673.94;;;-10.53;79.24
60089;BME280;45961;53.574;55.878;2024-01-06T10:28:16;99672.84;;;-10.57;79.21
60089;BME280;45961;53.574;55.878;2024-01-06T10:29:17;99673.47;;;-10.59;79.37
60089;BME280;45961;53.574;55.878;2024-01-06T10:30:18;99675.34;;;-10.57;79.17
60089;BME280;45961;53.574;55.878;2024-01-06T10:31:18;99669.97;;;-10.51;79.04
60089;BME280;45961;53.574;55.878;2024-01-06T10:32:19;99671.34;;;-10.55;79.20
60089;BME280;45961;53.574;55.878;2024-01-06T10:33:20;99671.44;;;-10.53;79.25
60089;BME280;45961;53.574;55.878;2024-01-06T10:34:22;99674.97;;;-10.51;79.29
60089;BME280;45961;53.574;55.878;2024-01-06T10:35:26;99679.84;;;-10.53;79.29
60089;BME280;45961;53.574;55.878;2024-01-06T10:36:28;99671.06;;;-10.58;79.39
60089;BME280;45961;53.574;55.878;2024-01-06T10:37:29;99673.72;;;-10.56;79.60
60089;BME280;45961;53.574;55.878;2024-01-06T10:38:30;99678.19;;;-10.62;79.63
60089;BME280;45961;53.574;55.878;2024-01-06T10:39:31;99670.09;;;-10.60;79.34
60089;BME280;45961;53.574;55.878;2024-01-06T10:40:32;99675.59;;;-10.54;79.84
60089;BME280;45961;53.574;55.878;2024-01-06T10:41:32;99669.47;;;-10.47;79.79
60089;BME280;45961;53.574;55.878;2024-01-06T10:42:35;99665.84;;;-10.51;79.77
60089;BME280;45961;53.574;55.878;2024-01-06T10:43:37;99659.09;;;-10.52;79.96
60089;BME280;45961;53.574;55.878;2024-01-06T10:44:41;99666.72;;;-10.50;80.19
60089;BME280;45961;53.574;55.878;2024-01-06T10:45:42;99672.00;;;-10.37;80.18
60089;BME280;45961;53.574;55.878;2024-01-06T10:46:44;99669.34;;;-10.49;80.09
60089;BME280;45961;53.574;55.878;2024-01-06T10:47:44;99670.84;;;-10.51;80.29
60089;BME280;45961;53.574;55.878;2024-01-06T10:48:46;99673.47;;;-10.49;80.22
60089;BME280;45961;53.574;55.878;2024-01-06T10:49:47;99673.19;;;-10.62;80.31
60089;BME280;45961;53.574;55.878;2024-01-06T10:50:49;99668.59;;;-10.68;80.38
60089;BME280;45961;53.574;55.878;2024-01-06T10:51:50;99683.53;;;-10.88;80.42
60089;BME280;45961;53.574;55.878;2024-01-06T10:52:52;99683.94;;;-10.84;80.73
60089;BME280;45961;53.574;55.878;2024-01-06T10:53:53;99687.78;;;-10.87;81.02
60089;BME280;45961;53.574;55.878;2024-01-06T10:54:55;99673.31;;;-10.71;81.22
60089;BME280;45961;53.574;55.878;2024-01-06T10:55:56;99674.94;;;-10.61;81.26
60089;BME280;45961;53.574;55.878;2024-01-06T10:56:58;99671.06;;;-10.58;81.10
60089;BME280;45961;53.574;55.878;2024-01-06T10:57:59;99669.84;;;-10.53;81.13
60089;BME280;45961;53.574;55.878;2024-01-06T10:59:02;99672.34;;;-10.73;80.97
60089;BME280;45961;53.574;55.878;2024-01-06T11:00:03;99677.06;;;-10.66;81.14
60089;BME280;45961;53.574;55.878;2024-01-06T11:01:05;99670.97;;;-10.59;81.17
60089;BME280;45961;53.574;55.878;2024-01-06T11:02:06;99674.09;;;-10.52;81.00
60089;BME280;45961;53.574;55.878;2024-01-06T11:03:08;99672.09;;;-10.46;81.06
60089;BME280;45961;53.574;55.878;2024-01-06T11:04:09;99666.59;;;-10.41;81.06
60089;BME280;45961;53.574;55.878;2024-01-06T11:05:11;99665.09;;;-10.39;81.05
60089;BME280;45961;53.574;55.878;2024-01-06T11:06:13;99665.84;;;-10.40;80.96
60089;BME280;45961;53.574;55.878;2024-01-06T11:07:15;99665.97;;;-10.39;80.76
60089;BME280;45961;53.574;55.878;2024-01-06T11:08:17;99669.84;;;-10.42;80.87
60089;BME280;45961;53.574;55.878;2024-01-06T11:09:22;99675.50;;;-10.45;80.87
60089;BME280;45961;53.574;55.878;2024-01-06T11:10:23;99670.34;;;-10.47;80.94
60089;BME280;45961;53.574;55.878;2024-01-06T11:11:24;99667.22;;;-10.44;80.98
60089;BME280;45961;53.574;55.878;2024-01-06T11:12:25;99673.00;;;-10.45;81.05
60089;BME280;45961;53.574;55.878;2024-01-06T11:13:26;99672.34;;;-10.42;80.95
60089;BME280;45961;53.574;55.878;2024-01-06T11:14:27;99670.59;;;-10.43;80.93
60089;BME280;45961;53.574;55.878;2024-01-06T11:15:47;99673.47;;;-10.49;81.04
60089;BME280;45961;53.574;55.878;2024-01-06T11:16:48;99677.72;;;-10.68;81.02
60089;BME280;45961;53.574;55.878;2024-01-06T11:17:50;99671.06;;;-10.58;81.02
60089;BME280;45961;53.574;55.878;2024-01-06T11:18:53;99657.97;;;-10.45;81.13
60089;BME280;45961;53.574;55.878;2024-01-06T11:20:01;99659.56;;;-10.46;81.11
60089;BME280;45961;53.574;55.878;2024-01-06T11:21:17;99665.34;;;-10.47;81.00
60089;BME280;45961;53.574;55.878;2024-01-06T11:22:31;99653.47;;;-10.39;80.80
60089;BME280;45961;53.574;55.878;2024-01-06T11:23:33;99656.34;;;-10.45;80.86
60089;BME280;45961;53.574;55.878;2024-01-06T11:24:36;99658.84;;;-10.34;80.81
60089;BME280;45961;53.574;55.878;2024-01-06T11:25:37;99654.59;;;-10.35;80.65
60089;BME280;45961;53.574;55.878;2024-01-06T11:26:56;99655.56;;;-10.33;80.71
60089;BME280;45961;53.574;55.878;2024-01-06T11:27:56;99657.09;;;-10.35;80.80
60089;BME280;45961;53.574;55.878;2024-01-06T11:28:57;99661.09;;;-10.37;80.84
60089;BME280;45961;53.574;55.878;2024-01-06T11:30:01;99666.72;;;-10.40;80.90
60089;BME280;45961;53.574;55.878;2024-01-06T11:31:08;99663.59;;;-10.37;81.02
60089;BME280;45961;53.574;55.878;2024-01-06T11:32:25;99659.47;;;-10.37;81.14
60089;BME280;45961;53.574;55.878;2024-01-06T11:33:27;99670.38;;;-10.36;80.93
60089;BME280;45961;53.574;55.878;2024-01-06T11:34:28;99674.34;;;-10.38;81.00
60089;BME280;45961;53.574;55.878;2024-01-06T11:35:31;99670.22;;;-10.48;81.19
60089;BME280;45961;53.574;55.878;2024-01-06T11:36:31;99671.09;;;-10.37;81.21
60089;BME280;45961;53.574;55.878;2024-01-06T11:37:36;99674.88;;;-10.32;81.24
60089;BME280;45961;53.574;55.878;2024-01-06T11:38:38;99676.00;;;-10.29;81.33
60089;BME280;45961;53.574;55.878;2024-01-06T11:39:42;99679.34;;;-10.38;81.34
60089;BME280;45961;53.574;55.878;2024-01-06T11:40:45;99677.59;;;-10.39;81.15
60089;BME280;45961;53.574;55.878;2024-01-06T11:41:49;99681.75;;;-10.40;81.31
60089;BME280;45961;53.574;55.878;2024-01-06T11:44:23;99693.09;;;-10.54;81.47
60089;BME280;45961;53.574;55.878;2024-01-06T11:45:24;99683.22;;;-10.42;81.36
60089;BME280;45961;53.574;55.878;2024-01-06T11:46:25;99685.72;;;-10.42;81.56
60089;BME280;45961;53.574;55.878;2024-01-06T11:47:27;99699.59;;;-10.46;81.43
60089;BME280;45961;53.574;55.878;2024-01-06T11:48:31;99688.59;;;-10.48;81.57
60089;BME280;45961;53.574;55.878;2024-01-06T11:49:32;99683.34;;;-10.51;81.46
60089;BME280;45961;53.574;55.878;2024-01-06T11:50:34;99694.97;;;-10.51;81.71
60089;BME280;45961;53.574;55.878;2024-01-06T11:51:35;99691.22;;;-10.46;81.67
60089;BME280;45961;53.574;55.878;2024-01-06T11:52:36;99685.59;;;-10.43;81.60
60089;BME280;45961;53.574;55.878;2024-01-06T11:53:37;99690.59;;;-10.54;81.63
60089;BME280;45961;53.574;55.878;2024-01-06T11:54:38;99688.59;;;-10.58;81.79
60089;BME280;45961;53.574;55.878;2024-01-06T11:55:39;99685.06;;;-10.70;81.78
60089;BME280;45961;53.574;55.878;2024-01-06T11:56:40;99688.94;;;-10.74;81.80
60089;BME280;45961;53.574;55.878;2024-01-06T11:57:41;99683.97;;;-10.53;81.95
60089;BME280;45961;53.574;55.878;2024-01-06T11:58:42;99694.59;;;-10.56;82.04
60089;BME280;45961;53.574;55.878;2024-01-06T11:59:43;99690.97;;;-10.59;82.11
60089;BME280;45961;53.574;55.878;2024-01-06T12:00:44;99695.94;;;-10.70;82.08
60089;BME280;45961;53.574;55.878;2024-01-06T12:01:55;99698.22;;;-10.62;82.31
60089;BME280;45961;53.574;55.878;2024-01-06T12:02:59;99694.94;;;-10.61;82.34
60089;BME280;45961;53.574;55.878;2024-01-06T12:04:01;99704.06;;;-10.62;82.45
60089;BME280;45961;53.574;55.878;2024-01-06T12:05:03;99698.09;;;-10.54;82.49
60089;BME280;45961;53.574;55.878;2024-01-06T12:06:04;99692.09;;;-10.56;82.50
60089;BME280;45961;53.574;55.878;2024-01-06T12:07:06;99700.84;;;-10.61;82.46
60089;BME280;45961;53.574;55.878;2024-01-06T12:08:07;99696.09;;;-10.58;82.53
60089;BME280;45961;53.574;55.878;2024-01-06T12:09:12;99693.84;;;-10.65;82.40
60089;BME280;45961;53.574;55.878;2024-01-06T12:10:16;99698.31;;;-10.71;82.37
60089;BME280;45961;53.574;55.878;2024-01-06T12:11:20;99696.03;;;-10.78;82.44
60089;BME280;45961;53.574;55.878;2024-01-06T12:12:21;99699.19;;;-10.81;82.36
60089;BME280;45961;53.574;55.878;2024-01-06T12:13:22;99700.31;;;-10.77;82.47
60089;BME280;45961;53.574;55.878;2024-01-06T12:14:22;99707.19;;;-10.85;82.51
60089;BME280;45961;53.574;55.878;2024-01-06T12:15:25;99700.31;;;-10.77;82.70
60089;BME280;45961;53.574;55.878;2024-01-06T12:16:26;99700.31;;;-10.77;82.62
60089;BME280;45961;53.574;55.878;2024-01-06T12:17:28;99701.97;;;-10.67;82.69
60089;BME280;45961;53.574;55.878;2024-01-06T12:18:30;99713.28;;;-10.81;82.65
60089;BME280;45961;53.574;55.878;2024-01-06T12:19:31;99710.31;;;-10.77;82.70
60089;BME280;45961;53.574;55.878;2024-01-06T12:20:32;99707.19;;;-10.75;82.86
60089;BME280;45961;53.574;55.878;2024-01-06T12:21:33;99708.44;;;-10.70;82.71
60089;BME280;45961;53.574;55.878;2024-01-06T12:22:38;99707.56;;;-10.70;82.78
60089;BME280;45961;53.574;55.878;2024-01-06T12:23:39;99703.84;;;-10.65;82.59
60089;BME280;45961;53.574;55.878;2024-01-06T12:24:40;99704.56;;;-10.66;82.50
60089;BME280;45961;53.574;55.878;2024-01-06T12:25:41;99704.56;;;-10.66;82.51
60089;BME280;45961;53.574;55.878;2024-01-06T12:26:43;99703.22;;;-10.62;82.65
60089;BME280;45961;53.574;55.878;2024-01-06T12:27:44;99708.59;;;-10.68;82.52
60089;BME280;45961;53.574;55.878;2024-01-06T12:28:46;99707.44;;;-10.72;82.53
60089;BME280;45961;53.574;55.878;2024-01-06T12:29:46;99708.22;;;-10.73;82.59
60089;BME280;45961;53.574;55.878;2024-01-06T12:30:47;99708.66;;;-10.87;82.70
60089;BME280;45961;53.574;55.878;2024-01-06T12:31:48;99718.22;;;-11.02;82.74
60089;BME280;45961;53.574;55.878;2024-01-06T12:32:49;99705.28;;;-10.87;83.03
60089;BME280;45961;53.574;55.878;2024-01-06T12:33:50;99702.69;;;-10.79;83.03
60089;BME280;45961;53.574;55.878;2024-01-06T12:34:52;99693.81;;;-10.75;82.98
60089;BME280;45961;53.574;55.878;2024-01-06T12:35:54;99702.44;;;-10.72;83.17
60089;BME280;45961;53.574;55.878;2024-01-06T12:36:55;99696.19;;;-10.77;83.12
60089;BME280;45961;53.574;55.878;2024-01-06T12:37:56;99697.19;;;-10.85;83.21
60089;BME280;45961;53.574;55.878;2024-01-06T12:38:57;99691.53;;;-10.82;83.31
60089;BME280;45961;53.574;55.878;2024-01-06T12:39:59;99692.25;;;-10.94;83.22
60089;BME280;45961;53.574;55.878;2024-01-06T12:41:00;99694.25;;;-10.89;83.38
60089;BME280;45961;53.574;55.878;2024-01-06T12:42:01;99700.97;;;-11.09;83.49
60089;BME280;45961;53.574;55.878;2024-01-06T12:43:02;99699.94;;;-11.21;83.46
60089;BME280;45961;53.574;55.878;2024-01-06T12:44:03;99702.16;;;-11.24;83.84
60089;BME280;45961;53.574;55.878;2024-01-06T12:45:05;99692.56;;;-11.20;83.91
60089;BME280;45961;53.574;55.878;2024-01-06T12:46:06;99698.53;;;-11.28;84.00
60089;BME280;45961;53.574;55.878;2024-01-06T12:47:07;99694.03;;;-11.22;84.25
60089;BME280;45961;53.574;55.878;2024-01-06T12:48:08;99695.63;;;-11.32;84.31
60089;BME280;45961;53.574;55.878;2024-01-06T12:49:09;99694.84;;;-11.41;84.50
60089;BME280;45961;53.574;55.878;2024-01-06T12:50:10;99683.56;;;-11.18;84.68
60089;BME280;45961;53.574;55.878;2024-01-06T12:51:11;99685.22;;;-11.08;84.76
60089;BME280;45961;53.574;55.878;2024-01-06T12:52:11;99682.63;;;-10.99;84.67
60089;BME280;45961;53.574;55.878;2024-01-06T12:53:12;99688.38;;;-11.00;84.94
60089;BME280;45961;53.574;55.878;2024-01-06T12:54:15;99690.53;;;-11.24;84.71
60089;BME280;45961;53.574;55.878;2024-01-06T12:55:16;99680.81;;;-11.21;84.74
60089;BME280;45961;53.574;55.878;2024-01-06T12:56:17;99675.13;;;-11.09;84.94
60089;BME280;45961;53.574;55.878;2024-01-06T12:57:18;99672.03;;;-11.26;84.96
60089;BME280;45961;53.574;55.878;2024-01-06T12:58:19;99675.69;;;-11.22;85.07
60089;BME280;45961;53.574;55.878;2024-01-06T12:59:19;99679.81;;;-11.23;85.10
60089;BME280;45961;53.574;55.878;2024-01-06T13:00:20;99675.59;;;-11.43;85.20
60089;BME280;45961;53.574;55.878;2024-01-06T13:01:21;99673.59;;;-11.47;85.46
60089;BME280;45961;53.574;55.878;2024-01-06T13:02:22;99670.28;;;-11.27;85.67
60089;BME280;45961;53.574;55.878;2024-01-06T13:03:23;99670.72;;;-11.12;85.75
60089;BME280;45961;53.574;55.878;2024-01-06T13:04:24;99663.63;;;-11.07;85.79
60089;BME280;45961;53.574;55.878;2024-01-06T13:05:24;99659.38;;;-10.98;85.76
60089;BME280;45961;53.574;55.878;2024-01-06T13:06:25;99668.78;;;-10.96;85.72
60089;BME280;45961;53.574;55.878;2024-01-06T13:07:26;99669.75;;;-11.04;85.55
60089;BME280;45961;53.574;55.878;2024-01-06T13:08:27;99663.78;;;-10.96;85.70
60089;BME280;45961;53.574;55.878;2024-01-06T13:09:28;99661.00;;;-10.99;85.54
60089;BME280;45961;53.574;55.878;2024-01-06T13:10:29;99662.78;;;-10.87;85.60
60089;BME280;45961;53.574;55.878;2024-01-06T13:11:30;99651.81;;;-10.79;85.49
60089;BME280;45961;53.574;55.878;2024-01-06T13:12:31;99666.91;;;-10.88;85.32
60089;BME280;45961;53.574;55.878;2024-01-06T13:13:32;99676.38;;;-10.94;85.20
60089;BME280;45961;53.574;55.878;2024-01-06T13:14:33;99680.91;;;-10.90;85.32
60089;BME280;45961;53.574;55.878;2024-01-06T13:15:33;99675.78;;;-10.91;85.34
60089;BME280;45961;53.574;55.878;2024-01-06T13:16:35;99681.28;;;-10.85;85.23
60089;BME280;45961;53.574;55.878;2024-01-06T13:17:37;99673.28;;;-10.81;85.14
60089;BME280;45961;53.574;55.878;2024-01-06T13:18:38;99673.69;;;-10.77;85.22
60089;BME280;45961;53.574;55.878;2024-01-06T13:19:38;99676.81;;;-10.79;85.17
60089;BME280;45961;53.574;55.878;2024-01-06T13:20:39;99683.69;;;-10.77;85.05
60089;BME280;45961;53.574;55.878;2024-01-06T13:21:42;99679.69;;;-10.75;85.04
60089;BME280;45961;53.574;55.878;2024-01-06T13:22:43;99679.69;;;-10.75;85.22
60089;BME280;45961;53.574;55.878;2024-01-06T13:23:43;99685.22;;;-10.68;85.11
60089;BME280;45961;53.574;55.878;2024-01-06T13:24:44;99676.69;;;-10.71;85.22
60089;BME280;45961;53.574;55.878;2024-01-06T13:25:45;99677.72;;;-10.68;85.20
60089;BME280;45961;53.574;55.878;2024-01-06T13:26:45;99687.94;;;-10.76;85.07
60089;BME280;45961;53.574;55.878;2024-01-06T13:27:47;99674.56;;;-10.76;85.22
60089;BME280;45961;53.574;55.878;2024-01-06T13:28:47;99674.84;;;-10.73;85.13
60089;BME280;45961;53.574;55.878;2024-01-06T13:29:48;99671.56;;;-10.72;85.17
60089;BME280;45961;53.574;55.878;2024-01-06T13:30:49;99677.56;;;-10.70;85.13
60089;BME280;45961;53.574;55.878;2024-01-06T13:31:50;99679.44;;;-10.67;85.13
60089;BME280;45961;53.574;55.878;2024-01-06T13:32:51;99680.44;;;-10.65;85.09
60089;BME280;45961;53.574;55.878;2024-01-06T13:33:54;99683.97;;;-10.63;85.07
60089;BME280;45961;53.574;55.878;2024-01-06T13:34:56;99683.47;;;-10.59;85.06
60089;BME280;45961;53.574;55.878;2024-01-06T13:36:04;99680.22;;;-10.58;85.16
60089;BME280;45961;53.574;55.878;2024-01-06T13:37:05;99676.22;;;-10.56;85.07
60089;BME280;45961;53.574;55.878;2024-01-06T13:38:07;99677.09;;;-10.56;85.30
60089;BME280;45961;53.574;55.878;2024-01-06T13:39:09;99680.69;;;-10.62;85.27
60089;BME280;45961;53.574;55.878;2024-01-06T13:40:17;99683.59;;;-10.68;85.18
60089;BME280;45961;53.574;55.878;2024-01-06T13:41:21;99678.09;;;-10.64;85.32
60089;BME280;45961;53.574;55.878;2024-01-06T13:42:22;99678.34;;;-10.61;85.40
60089;BME280;45961;53.574;55.878;2024-01-06T13:43:23;99676.84;;;-10.59;85.32
60089;BME280;45961;53.574;55.878;2024-01-06T13:44:24;99671.72;;;-10.60;85.33
60089;BME280;45961;53.574;55.878;2024-01-06T13:45:24;99674.34;;;-10.59;85.29
60089;BME280;45961;53.574;55.878;2024-01-06T13:46:25;99667.59;;;-10.60;85.34
60089;BME280;45961;53.574;55.878;2024-01-06T13:47:26;99675.59;;;-10.64;85.27
60089;BME280;45961;53.574;55.878;2024-01-06T13:48:27;99670.81;;;-10.71;85.39
60089;BME280;45961;53.574;55.878;2024-01-06T13:49:28;99668.94;;;-10.74;85.55
60089;BME280;45961;53.574;55.878;2024-01-06T13:50:28;99675.66;;;-10.83;85.47
60089;BME280;45961;53.574;55.878;2024-01-06T13:51:29;99670.56;;;-10.74;85.70
60089;BME280;45961;53.574;55.878;2024-01-06T13:52:30;99669.44;;;-10.67;85.71
60089;BME280;45961;53.574;55.878;2024-01-06T13:53:31;99671.34;;;-10.65;85.84
60089;BME280;45961;53.574;55.878;2024-01-06T13:54:31;99673.84;;;-10.65;85.95
60089;BME280;45961;53.574;55.878;2024-01-06T13:55:32;99678.44;;;-10.70;85.83
60089;BME280;45961;53.574;55.878;2024-01-06T13:56:34;99667.81;;;-10.77;85.98
60089;BME280;45961;53.574;55.878;2024-01-06T13:57:35;99676.28;;;-10.85;86.03
60089;BME280;45961;53.574;55.878;2024-01-06T13:58:37;99669.69;;;-10.85;86.14
60089;BME280;45961;53.574;55.878;2024-01-06T13:59:39;99671.53;;;-10.82;86.11
60089;BME280;45961;53.574;55.878;2024-01-06T14:00:43;99666.81;;;-10.79;86.16
60089;BME280;45961;53.574;55.878;2024-01-06T14:01:44;99667.34;;;-10.73;86.26
60089;BME280;45961;53.574;55.878;2024-01-06T14:02:46;99656.44;;;-10.74;86.37
60089;BME280;45961;53.574;55.878;2024-01-06T14:03:50;99663.31;;;-10.71;86.36
60089;BME280;45961;53.574;55.878;2024-01-06T14:04:51;99664.06;;;-10.72;86.34
60089;BME280;45961;53.574;55.878;2024-01-06T14:05:52;99661.69;;;-10.71;86.38
60089;BME280;45961;53.574;55.878;2024-01-06T14:06:53;99660.06;;;-10.70;86.29
60089;BME280;45961;53.574;55.878;2024-01-06T14:07:56;99664.41;;;-10.78;86.48
60089;BME280;45961;53.574;55.878;2024-01-06T14:08:57;99659.41;;;-10.78;86.48
60089;BME280;45961;53.574;55.878;2024-01-06T14:09:58;99676.16;;;-10.87;86.55
60089;BME280;45961;53.574;55.878;2024-01-06T14:10:59;99668.25;;;-11.02;86.38
60089;BME280;45961;53.574;55.878;2024-01-06T14:11:59;99673.53;;;-10.88;86.64
60089;BME280;45961;53.574;55.878;2024-01-06T14:13:00;99668.28;;;-10.81;86.71
60089;BME280;45961;53.574;55.878;2024-01-06T14:14:01;99672.19;;;-10.85;86.74
60089;BME280;45961;53.574;55.878;2024-01-06T14:15:02;99670.50;;;-10.95;86.94
60089;BME280;45961;53.574;55.878;2024-01-06T14:16:04;99671.72;;;-11.10;87.03
60089;BME280;45961;53.574;55.878;2024-01-06T14:17:05;99672.22;;;-11.14;87.28
60089;BME280;45961;53.574;55.878;2024-01-06T14:18:05;99674.25;;;-11.00;87.52
60089;BME280;45961;53.574;55.878;2024-01-06T14:19:06;99676.50;;;-11.03;87.69
60089;BME280;45961;53.574;55.878;2024-01-06T14:20:07;99662.31;;;-10.83;87.70
60089;BME280;45961;53.574;55.878;2024-01-06T14:21:10;99664.16;;;-10.91;87.80
60089;BME280;45961;53.574;55.878;2024-01-06T14:22:11;99663.03;;;-10.95;87.82
60089;BME280;45961;53.574;55.878;2024-01-06T14:23:12;99662.03;;;-10.86;88.00
60089;BME280;45961;53.574;55.878;2024-01-06T14:24:13;99654.03;;;-10.82;88.10
60089;BME280;45961;53.574;55.878;2024-01-06T14:25:14;99655.06;;;-10.80;87.97
60089;BME280;45961;53.574;55.878;2024-01-06T14:26:16;99657.69;;;-10.79;88.09
60089;BME280;45961;53.574;55.878;2024-01-06T14:27:18;99656.53;;;-10.82;87.87
60089;BME280;45961;53.574;55.878;2024-01-06T14:28:19;99656.19;;;-10.77;88.11
60089;BME280;45961;53.574;55.878;2024-01-06T14:29:21;99663.56;;;-10.78;88.12
60089;BME280;45961;53.574;55.878;2024-01-06T14:30:22;99651.44;;;-10.74;88.14
60089;BME280;45961;53.574;55.878;2024-01-06T14:31:22;99651.56;;;-10.72;87.99
60089;BME280;45961;53.574;55.878;2024-01-06T14:32:23;99643.09;;;-10.64;87.95
60089;BME280;45961;53.574;55.878;2024-01-06T14:33:24;99652.34;;;-10.73;87.75
60089;BME280;45961;53.574;55.878;2024-01-06T14:34:25;99645.31;;;-10.67;87.95
60089;BME280;45961;53.574;55.878;2024-01-06T14:35:25;99649.72;;;-10.64;87.86
60089;BME280;45961;53.574;55.878;2024-01-06T14:36:26;99656.53;;;-10.82;87.69
60089;BME280;45961;53.574;55.878;2024-01-06T14:37:28;99657.19;;;-10.85;87.96
60089;BME280;45961;53.574;55.878;2024-01-06T14:38:29;99654.03;;;-10.82;87.99
60089;BME280;45961;53.574;55.878;2024-01-06T14:39:29;99657.56;;;-10.70;87.98
60089;BME280;45961;53.574;55.878;2024-01-06T14:40:30;99652.81;;;-10.67;88.09
60089;BME280;45961;53.574;55.878;2024-01-06T14:41:31;99655.22;;;-10.68;87.99
60089;BME280;45961;53.574;55.878;2024-01-06T14:42:32;99659.94;;;-10.72;88.12
60089;BME280;45961;53.574;55.878;2024-01-06T14:43:33;99660.69;;;-10.73;88.15
60089;BME280;45961;53.574;55.878;2024-01-06T14:44:34;99654.53;;;-10.86;88.24
60089;BME280;45961;53.574;55.878;2024-01-06T14:45:35;99659.31;;;-10.79;88.22
60089;BME280;45961;53.574;55.878;2024-01-06T14:46:35;99656.81;;;-10.79;88.36
60089;BME280;45961;53.574;55.878;2024-01-06T14:47:37;99660.66;;;-10.83;88.42
60089;BME280;45961;53.574;55.878;2024-01-06T14:48:38;99656.06;;;-10.78;88.44
60089;BME280;45961;53.574;55.878;2024-01-06T14:49:39;99646.31;;;-10.75;88.59
60089;BME280;45961;53.574;55.878;2024-01-06T14:50:40;99646.19;;;-10.77;88.66
60089;BME280;45961;53.574;55.878;2024-01-06T14:51:41;99643.06;;;-10.74;88.71
60089;BME280;45961;53.574;55.878;2024-01-06T14:52:41;99644.94;;;-10.72;88.72
60089;BME280;45961;53.574;55.878;2024-01-06T14:53:42;99645.94;;;-10.70;88.74
60089;BME280;45961;53.574;55.878;2024-01-06T14:54:43;99648.56;;;-10.78;88.71
60089;BME280;45961;53.574;55.878;2024-01-06T14:55:46;99651.19;;;-10.77;88.86
60089;BME280;45961;53.574;55.878;2024-01-06T14:56:47;99644.84;;;-10.73;88.88
60089;BME280;45961;53.574;55.878;2024-01-06T14:57:48;99643.69;;;-10.66;88.89
60089;BME280;45961;53.574;55.878;2024-01-06T14:58:49;99650.22;;;-10.68;89.04
60089;BME280;45961;53.574;55.878;2024-01-06T14:59:50;99647.22;;;-10.64;88.98
60089;BME280;45961;53.574;55.878;2024-01-06T15:00:50;99649.44;;;-10.67;88.92
60089;BME280;45961;53.574;55.878;2024-01-06T15:01:51;99649.72;;;-10.64;89.15
60089;BME280;45961;53.574;55.878;2024-01-06T15:02:52;99652.56;;;-10.70;89.02
60089;BME280;45961;53.574;55.878;2024-01-06T15:03:53;99642.81;;;-10.67;89.04